Kanab, UT (84741)

3:06 PM MST on February 14, 2016 (GMT -0700)
RAWS | | Change Station
CLOSE
Current Station
Personal Weather Station
Location: Canyon Point, UT
Elevation: 5846 ft
Nearby Weather Stations

Elev 5846 ft 37.14 °N, 112.45 °W | Updated 35 minutes ago

Clear
Clear
59 °F
Feels Like 59 °F
N
3
Wind Variable Wind from West
Gusts 11.0 mph

Today
High -- | Low -- °F
--% Chance of Precip.
Yesterday
High -- | Low -- °F
Precip. -- in
Pressure 30.01 in
Visibility 10.0 miles
Clouds Clear
Dew Point 10 °F
Humidity 14%
Rainfall in
Snow Depth Not available.
7:18 AM 6:06 PM
Waxing Crescent, 45% visible
METAR KPGA 142153Z AUTO 09004KT 10SM CLR 14/M03 A3008 RMK AO2 SLP163 T01391028 TSNO
Pressure 30.01 in
Visibility 10.0 miles
Clouds Clear
Dew Point 10 °F
Humidity 14%
Rainfall in
Snow Depth Not available.
7:18 AM 6:06 PM
Waxing Crescent, 45% visible
METAR KPGA 142153Z AUTO 09004KT 10SM CLR 14/M03 A3008 RMK AO2 SLP163 T01391028 TSNO

10-Day Weather Forecast

Almanac

Astronomy

Feb. 14, 2016 Rise Set
Actual Time
Civil Twilight
Nautical Twilight
Astronomical Twilight
Moon
Length of Visible Light
Length of Day
Tomorrow will be .
, % of the Moon is Illuminated

Today's Extremes

State Highs State Lows

Community

WunderPhotos

Upload Photos

1,892,890 photos uploaded!

WunderBlog® & News

Nearby

Air Quality

  Air Quality AQ Index Pollutant
Not available.

Snow Depth

Station Depth Elevation

Earthquake Activity

City Distance Mag. Time & Date
Minimum magnitude displayed is 2.5.

Coastal Water Temperatures

Place Temperature

Stations

Nearby Weather Stations

Station Location Temp. Windchill Dew Point Humidity Wind Precip. Elev Updated Type
                   

Watches & Warnings

There are currently no watches in effect.